createdAt,value
2023-02-02T00:01:54.399Z,82.19
2023-02-02T00:04:25.152Z,82.57
2023-02-02T00:06:53.935Z,82.48
2023-02-02T00:09:22.875Z,82.71
2023-02-02T00:11:51.996Z,82.64
2023-02-02T00:14:22.030Z,82.75
2023-02-02T00:16:51.899Z,82.99
2023-02-02T00:19:23.052Z,82.80
2023-02-02T00:21:51.640Z,83.22
2023-02-02T00:24:20.884Z,83.44
2023-02-02T00:26:53.114Z,82.74
2023-02-02T00:29:25.352Z,82.96
2023-02-02T00:31:54.285Z,83.72
2023-02-02T00:34:23.573Z,83.45
2023-02-02T00:36:52.886Z,83.38
2023-02-02T00:39:25.396Z,83.74
2023-02-02T00:41:53.904Z,84.07
2023-02-02T00:44:41.667Z,84.13
2023-02-02T00:47:10.082Z,83.75
2023-02-02T00:49:38.380Z,83.91
2023-02-02T00:52:07.029Z,84.18
2023-02-02T00:54:35.432Z,84.41
2023-02-02T00:57:03.964Z,84.28
2023-02-02T00:59:33.882Z,84.35
2023-02-02T01:02:02.261Z,84.68
2023-02-02T01:04:30.788Z,84.92
2023-02-02T01:06:59.153Z,84.60
2023-02-02T01:09:27.591Z,84.74
2023-02-02T01:11:56.073Z,84.91
2023-02-02T01:14:24.577Z,85.39
2023-02-02T01:16:54.230Z,84.82
2023-02-02T01:19:22.735Z,85.15
2023-02-02T01:21:52.064Z,85.45
2023-02-02T01:24:20.428Z,85.76
2023-02-02T01:26:48.851Z,85.06
2023-02-02T01:29:17.345Z,85.70
2023-02-02T01:31:45.998Z,85.61
2023-02-02T01:34:15.773Z,85.81
2023-02-02T01:36:44.155Z,86.08
2023-02-02T01:39:12.710Z,85.84
2023-02-02T01:41:42.322Z,86.28
2023-02-02T01:45:05.159Z,86.27
2023-02-02T01:47:39.133Z,86.49
2023-02-02T01:50:11.464Z,86.50
2023-02-02T01:52:41.500Z,86.71
2023-02-02T01:55:14.240Z,86.52
2023-02-02T01:57:48.350Z,86.63
2023-02-02T02:00:18.618Z,86.23
2023-02-02T02:02:49.613Z,87.48
2023-02-02T02:05:27.463Z,86.97
2023-02-02T02:08:05.317Z,87.35
2023-02-02T02:10:34.976Z,86.97
2023-02-02T02:13:03.424Z,87.28
2023-02-02T02:15:53.323Z,87.12
2023-02-02T02:18:33.547Z,87.26
2023-02-02T02:21:51.648Z,87.23
2023-02-02T02:25:18.298Z,87.06
2023-02-02T02:28:49.305Z,87.91
2023-02-02T02:31:56.032Z,87.19
2023-02-02T02:34:35.383Z,87.69
2023-02-02T02:37:12.025Z,87.63
2023-02-02T02:39:47.102Z,87.86
2023-02-02T02:42:20.166Z,87.87
2023-02-02T02:44:50.512Z,87.88
2023-02-02T02:47:21.239Z,87.64
2023-02-02T02:49:50.927Z,88.11
2023-02-02T02:52:19.265Z,87.65
2023-02-02T02:54:51.701Z,87.74
2023-02-02T02:57:40.047Z,87.60
2023-02-02T03:00:27.992Z,88.36
2023-02-02T03:03:09.497Z,88.43
2023-02-02T03:05:50.856Z,87.83
2023-02-02T03:08:26.057Z,88.45
2023-02-02T03:10:57.042Z,87.91
2023-02-02T03:13:26.121Z,88.47
2023-02-02T03:15:54.727Z,88.61
2023-02-02T03:18:29.135Z,88.63
2023-02-02T03:20:57.760Z,88.58
2023-02-02T03:23:26.519Z,89.00
2023-02-02T03:25:55.597Z,88.92
2023-02-02T03:28:25.534Z,88.42
2023-02-02T03:30:55.131Z,89.28
2023-02-02T03:33:25.414Z,89.08
2023-02-02T03:35:54.178Z,89.41
2023-02-02T03:38:22.552Z,89.46
2023-02-02T03:40:52.661Z,89.01
2023-02-02T03:43:25.019Z,88.93
2023-02-02T03:45:58.561Z,89.30
2023-02-02T03:48:28.800Z,88.90
2023-02-02T03:50:57.296Z,88.93
2023-02-02T03:53:26.016Z,89.48
2023-02-02T03:55:55.080Z,89.39
2023-02-02T03:58:23.627Z,88.91
2023-02-02T04:00:52.256Z,89.55
2023-02-02T04:03:20.612Z,89.31
2023-02-02T04:05:52.505Z,89.22
2023-02-02T04:08:20.766Z,89.31
2023-02-02T04:10:49.032Z,90.25
2023-02-02T04:13:17.367Z,90.42
2023-02-02T04:15:45.768Z,89.53
2023-02-02T04:18:14.307Z,89.42
2023-02-02T04:20:42.687Z,90.27
2023-02-02T04:23:12.763Z,90.32
2023-02-02T04:25:41.166Z,90.10
2023-02-02T04:28:09.947Z,89.89
2023-02-02T04:30:38.743Z,90.32
2023-02-02T04:33:07.349Z,90.54
2023-02-02T04:35:45.554Z,90.25
2023-02-02T04:38:15.812Z,90.33
2023-02-02T04:40:46.693Z,89.48
2023-02-02T04:43:16.106Z,89.58
2023-02-02T04:45:45.070Z,89.64
2023-02-02T04:48:13.501Z,90.39
2023-02-02T04:50:41.830Z,89.72
2023-02-02T04:53:10.139Z,89.48
2023-02-02T04:55:40.227Z,89.65
2023-02-02T04:58:08.632Z,89.56
2023-02-02T05:00:37.111Z,89.45
2023-02-02T05:03:05.616Z,89.15
2023-02-02T05:05:33.991Z,89.04
2023-02-02T05:08:02.292Z,89.15
2023-02-02T05:10:31.224Z,88.85
2023-02-02T05:13:00.970Z,88.54
2023-02-02T05:15:29.382Z,88.37
2023-02-02T05:17:57.760Z,88.45
2023-02-02T05:20:26.274Z,88.76
2023-02-02T05:22:54.687Z,88.52
2023-02-02T05:25:23.644Z,88.59
2023-02-02T05:27:52.252Z,88.41
2023-02-02T05:30:22.379Z,88.37
2023-02-02T05:32:50.768Z,87.70
2023-02-02T05:35:19.247Z,88.30
2023-02-02T05:37:47.806Z,88.51
2023-02-02T05:40:16.575Z,88.18
2023-02-02T05:42:49.536Z,88.07
2023-02-02T05:45:18.300Z,88.56
2023-02-02T05:47:48.030Z,88.32
2023-02-02T05:50:17.177Z,88.48
2023-02-02T05:52:48.374Z,88.21
2023-02-02T05:55:18.478Z,88.32
2023-02-02T05:57:46.894Z,88.63
2023-02-02T06:00:16.655Z,88.78
2023-02-02T06:02:45.572Z,88.46
2023-02-02T06:05:15.408Z,88.34
2023-02-02T06:07:43.796Z,88.60
2023-02-02T06:10:12.523Z,88.56
2023-02-02T06:12:40.871Z,88.86
2023-02-02T06:15:11.720Z,88.79
2023-02-02T06:17:40.056Z,88.55
2023-02-02T06:20:09.521Z,88.11
2023-02-02T06:22:39.154Z,88.93
2023-02-02T06:25:08.894Z,88.71
2023-02-02T06:27:37.429Z,88.84
2023-02-02T06:30:06.724Z,89.03
2023-02-02T06:32:35.147Z,88.34
2023-02-02T06:35:03.854Z,88.53
2023-02-02T06:37:34.209Z,89.13
2023-02-02T06:40:03.994Z,88.56
2023-02-02T06:42:32.348Z,88.84
2023-02-02T06:45:00.664Z,88.61
2023-02-02T06:47:29.072Z,88.69
2023-02-02T06:49:57.613Z,88.83
2023-02-02T06:52:25.943Z,88.87
2023-02-02T06:54:54.291Z,88.63
2023-02-02T06:57:24.107Z,88.74
2023-02-02T06:59:52.389Z,88.92
2023-02-02T07:02:20.849Z,88.77
2023-02-02T07:04:49.348Z,88.32
2023-02-02T07:07:21.454Z,88.48
2023-02-02T07:09:58.105Z,88.46
2023-02-02T07:12:28.368Z,88.72
2023-02-02T07:14:57.013Z,88.54
2023-02-02T07:17:25.411Z,88.44
2023-02-02T07:19:53.662Z,88.57
2023-02-02T07:22:22.060Z,88.86
2023-02-02T07:24:50.391Z,88.47
2023-02-02T07:27:18.761Z,88.52
2023-02-02T07:29:48.463Z,89.19
2023-02-02T07:32:16.974Z,88.43
2023-02-02T07:34:45.218Z,88.68
2023-02-02T07:37:13.464Z,88.69
2023-02-02T07:39:43.351Z,88.61
2023-02-02T07:42:13.467Z,89.06
2023-02-02T07:44:41.815Z,88.71
2023-02-02T07:47:11.523Z,88.51
2023-02-02T07:49:39.933Z,88.52
2023-02-02T07:52:08.426Z,88.45
2023-02-02T07:54:36.870Z,88.53
2023-02-02T07:57:05.330Z,88.95
2023-02-02T07:59:33.754Z,88.88
2023-02-02T08:02:02.199Z,88.91
2023-02-02T08:04:33.561Z,89.52
2023-02-02T08:07:02.052Z,88.99
2023-02-02T08:09:31.160Z,89.12
2023-02-02T08:12:01.852Z,88.59
2023-02-02T08:14:30.486Z,89.26
2023-02-02T08:16:58.797Z,88.91
2023-02-02T08:19:27.160Z,88.78
2023-02-02T08:21:57.036Z,89.44
2023-02-02T08:24:25.439Z,89.35
2023-02-02T08:26:54.002Z,88.18
2023-02-02T08:29:22.395Z,88.66
2023-02-02T08:31:50.968Z,88.57
2023-02-02T08:34:19.397Z,88.55
2023-02-02T08:36:47.659Z,88.20
2023-02-02T08:39:17.400Z,88.99
2023-02-02T08:41:46.379Z,89.05
2023-02-02T08:44:17.081Z,88.30
2023-02-02T08:46:45.397Z,89.32
2023-02-02T08:49:14.335Z,88.26
2023-02-02T08:51:43.171Z,88.86
2023-02-02T08:54:11.564Z,88.71
2023-02-02T08:56:42.050Z,89.89
2023-02-02T08:59:10.487Z,88.83
2023-02-02T09:01:39.024Z,89.53
2023-02-02T09:04:09.413Z,89.39
2023-02-02T09:06:40.446Z,89.34
2023-02-02T09:09:11.659Z,89.59
2023-02-02T09:11:42.087Z,89.97
2023-02-02T09:14:12.310Z,89.73
2023-02-02T09:16:40.921Z,89.54
2023-02-02T09:19:09.543Z,89.82
2023-02-02T09:21:38.019Z,90.19
2023-02-02T09:24:11.684Z,89.81
2023-02-02T09:26:41.777Z,89.73
2023-02-02T09:29:14.394Z,89.10
2023-02-02T09:31:43.250Z,89.43
2023-02-02T09:34:13.913Z,88.86
2023-02-02T09:36:44.224Z,89.46
2023-02-02T09:39:15.104Z,89.46
2023-02-02T09:42:19.931Z,88.89
2023-02-02T09:45:14.837Z,89.02
2023-02-02T09:47:57.816Z,88.81
2023-02-02T09:50:45.303Z,89.17
2023-02-02T09:53:24.543Z,89.02
2023-02-02T09:55:55.972Z,88.71
2023-02-02T09:58:30.084Z,88.70
2023-02-02T10:01:06.875Z,87.96
2023-02-02T10:03:42.015Z,89.08
2023-02-02T10:06:26.651Z,87.90
2023-02-02T10:09:01.003Z,89.07
2023-02-02T10:11:35.614Z,89.17
2023-02-02T10:14:14.351Z,88.56
2023-02-02T10:16:43.319Z,88.78
2023-02-02T10:19:13.681Z,88.37
2023-02-02T10:21:49.682Z,88.87
2023-02-02T10:24:21.995Z,88.77
2023-02-02T10:26:53.561Z,88.34
2023-02-02T10:29:48.012Z,88.46
2023-02-02T10:32:24.112Z,88.21
2023-02-02T10:35:28.632Z,88.67
2023-02-02T10:38:03.151Z,88.45
2023-02-02T10:40:48.378Z,88.16
2023-02-02T10:43:54.570Z,88.39
2023-02-02T10:46:27.512Z,87.80
2023-02-02T10:49:12.999Z,87.70
2023-02-02T10:51:42.213Z,87.20
2023-02-02T10:54:31.064Z,88.29
2023-02-02T10:57:02.327Z,88.46
2023-02-02T10:59:34.818Z,88.57
2023-02-02T11:02:19.965Z,88.35
2023-02-02T11:05:06.365Z,87.88
2023-02-02T11:07:34.774Z,88.62
2023-02-02T11:10:03.125Z,87.64
2023-02-02T11:12:36.763Z,88.37
2023-02-02T11:15:09.028Z,89.28
2023-02-02T11:17:39.680Z,88.25
2023-02-02T11:20:26.881Z,88.57
2023-02-02T11:23:03.169Z,88.98
2023-02-02T11:25:35.515Z,88.54
2023-02-02T11:28:19.000Z,89.46
2023-02-02T11:30:52.607Z,88.82
2023-02-02T11:33:30.319Z,88.60
2023-02-02T11:36:01.055Z,88.21
2023-02-02T11:38:30.315Z,88.18
2023-02-02T11:41:03.741Z,89.07
2023-02-02T11:43:41.019Z,88.57
2023-02-02T11:46:21.467Z,89.05
2023-02-02T11:48:58.805Z,88.55
2023-02-02T11:51:29.534Z,88.29
2023-02-02T11:54:06.788Z,88.81
2023-02-02T11:56:38.233Z,89.17
2023-02-02T11:59:06.794Z,89.70
2023-02-02T12:01:39.649Z,88.65
2023-02-02T12:04:26.532Z,89.71
2023-02-02T12:06:55.113Z,89.11
2023-02-02T12:09:25.881Z,88.04
2023-02-02T12:12:03.340Z,89.46
2023-02-02T12:14:44.122Z,88.92
2023-02-02T12:17:27.697Z,89.06
2023-02-02T12:20:33.474Z,88.73
2023-02-02T12:23:36.953Z,89.48
2023-02-02T12:26:30.553Z,89.24
2023-02-02T12:29:28.276Z,88.30
2023-02-02T12:32:17.960Z,88.70
2023-02-02T12:35:00.684Z,89.21
2023-02-02T12:37:51.549Z,88.96
2023-02-02T12:40:43.695Z,88.64
2023-02-02T12:43:27.189Z,89.34
2023-02-02T12:46:23.190Z,89.07
2023-02-02T12:49:08.361Z,88.89
2023-02-02T12:51:54.252Z,89.22
2023-02-02T12:54:53.127Z,88.94
2023-02-02T12:57:35.446Z,88.83
2023-02-02T13:00:28.162Z,88.61
2023-02-02T13:03:11.705Z,88.14
2023-02-02T13:05:55.663Z,87.73
2023-02-02T13:08:30.593Z,88.40
2023-02-02T13:11:28.236Z,87.40
2023-02-02T13:13:59.618Z,87.82
2023-02-02T13:16:31.556Z,88.29
2023-02-02T13:19:08.051Z,88.84
2023-02-02T13:21:38.509Z,87.87
2023-02-02T13:24:10.958Z,88.13
2023-02-02T13:26:45.745Z,88.35
2023-02-02T13:29:34.064Z,88.25
2023-02-02T13:32:22.595Z,88.66
2023-02-02T13:34:56.862Z,87.87
2023-02-02T13:37:37.108Z,88.12
2023-02-02T13:40:16.991Z,88.48
2023-02-02T13:42:53.465Z,88.57
2023-02-02T13:45:41.439Z,87.53
2023-02-02T13:48:25.603Z,88.13
2023-02-02T13:51:43.374Z,88.53
2023-02-02T13:54:55.199Z,88.47
2023-02-02T13:58:05.354Z,88.03
2023-02-02T14:00:41.019Z,88.11
2023-02-02T14:03:38.702Z,88.28
2023-02-02T14:06:12.303Z,87.84
2023-02-02T14:08:48.949Z,88.54
2023-02-02T14:11:28.110Z,87.57
2023-02-02T14:14:18.655Z,88.67
2023-02-02T14:16:52.416Z,88.31
2023-02-02T14:19:55.260Z,88.09
2023-02-02T14:22:50.988Z,88.14
2023-02-02T14:25:55.654Z,88.12
2023-02-02T14:28:57.188Z,88.15
2023-02-02T14:31:43.532Z,87.78
2023-02-02T14:34:35.715Z,87.58
2023-02-02T14:37:39.600Z,88.38
2023-02-02T14:40:44.880Z,87.77
2023-02-02T14:43:41.295Z,88.49
2023-02-02T14:46:48.200Z,87.76
2023-02-02T14:49:29.100Z,88.32
2023-02-02T14:52:05.670Z,87.38
2023-02-02T14:54:39.270Z,88.39
2023-02-02T14:57:26.387Z,88.68
2023-02-02T14:59:56.503Z,87.62
2023-02-02T15:02:33.095Z,88.11
2023-02-02T15:05:40.427Z,88.85
2023-02-02T15:08:26.195Z,89.03
2023-02-02T15:11:32.088Z,88.62
2023-02-02T15:14:14.175Z,89.18
2023-02-02T15:16:44.023Z,89.09
2023-02-02T15:19:25.864Z,88.36
2023-02-02T15:21:58.570Z,89.56
2023-02-02T15:24:31.045Z,88.63
2023-02-02T15:27:03.127Z,89.18
2023-02-02T15:29:42.750Z,89.36
2023-02-02T15:32:17.173Z,89.06
2023-02-02T15:34:50.385Z,89.48
2023-02-02T15:37:24.875Z,89.67
2023-02-02T15:39:59.905Z,89.42
2023-02-02T15:42:56.508Z,89.36
2023-02-02T15:45:43.554Z,89.60
2023-02-02T15:48:23.905Z,89.51
2023-02-02T15:50:57.669Z,90.26
2023-02-02T15:53:29.327Z,89.80
2023-02-02T15:55:59.365Z,90.55
2023-02-02T15:58:33.604Z,90.59
2023-02-02T16:01:06.741Z,90.03
2023-02-02T16:03:46.789Z,90.05
2023-02-02T16:06:15.346Z,90.89
2023-02-02T16:08:44.476Z,89.75
2023-02-02T16:11:17.318Z,90.41
2023-02-02T16:13:58.813Z,90.40
2023-02-02T16:16:30.059Z,91.20
2023-02-02T16:19:14.694Z,90.87
2023-02-02T16:21:49.702Z,91.57
2023-02-02T16:24:24.508Z,91.24
2023-02-02T16:26:56.995Z,91.34
2023-02-02T16:29:28.066Z,92.23
2023-02-02T16:31:58.377Z,91.67
2023-02-02T16:34:48.170Z,92.41
2023-02-02T16:37:27.712Z,92.35
2023-02-02T16:39:59.035Z,92.80
2023-02-02T16:42:31.632Z,92.04
2023-02-02T16:45:01.725Z,92.58
2023-02-02T16:47:40.564Z,92.17
2023-02-02T16:50:32.206Z,92.81
2023-02-02T16:53:04.560Z,92.56
2023-02-02T16:55:49.984Z,92.64
2023-02-02T16:58:24.017Z,93.00
2023-02-02T17:01:14.083Z,93.07
2023-02-02T17:03:51.435Z,93.03
2023-02-02T17:06:35.700Z,93.24
2023-02-02T17:09:35.198Z,93.53
2023-02-02T17:12:14.335Z,93.49
2023-02-02T17:14:56.677Z,93.09
2023-02-02T17:17:25.451Z,93.71
2023-02-02T17:19:54.015Z,93.69
2023-02-02T17:22:25.328Z,93.19
2023-02-02T17:24:54.107Z,93.43
2023-02-02T17:27:29.150Z,93.72
2023-02-02T17:30:01.379Z,93.47
2023-02-02T17:32:29.770Z,94.11
2023-02-02T17:34:58.185Z,94.01
2023-02-02T17:37:26.539Z,93.50
2023-02-02T17:39:54.854Z,94.58
2023-02-02T17:42:26.779Z,93.30
2023-02-02T17:44:55.337Z,93.95
2023-02-02T17:47:25.111Z,94.73
2023-02-02T17:49:53.652Z,94.16
2023-02-02T17:52:22.360Z,93.89
2023-02-02T17:54:50.702Z,94.52
2023-02-02T17:57:20.157Z,94.38
2023-02-02T17:59:48.549Z,95.06
2023-02-02T18:02:17.759Z,94.68
2023-02-02T18:04:59.273Z,95.21
2023-02-02T18:07:27.603Z,94.26
2023-02-02T18:09:55.977Z,95.01
2023-02-02T18:12:25.342Z,94.53
2023-02-02T18:14:55.790Z,94.64
2023-02-02T18:17:26.280Z,95.28
2023-02-02T18:19:56.734Z,95.13
2023-02-02T18:22:36.025Z,94.74
2023-02-02T18:25:13.809Z,95.33
2023-02-02T18:27:51.590Z,95.58
2023-02-02T18:30:29.294Z,95.74
2023-02-02T18:32:57.642Z,94.72
2023-02-02T18:35:28.422Z,95.85
2023-02-02T18:37:57.841Z,95.13
2023-02-02T18:40:26.265Z,95.36
2023-02-02T18:42:54.862Z,95.63
2023-02-02T18:45:23.715Z,94.90
2023-02-02T18:47:52.415Z,95.45
2023-02-02T18:50:22.138Z,95.45
2023-02-02T18:52:51.807Z,94.90
2023-02-02T18:55:20.165Z,95.59
2023-02-02T18:57:48.649Z,94.86
2023-02-02T19:00:17.522Z,96.02
2023-02-02T19:02:45.910Z,95.25
2023-02-02T19:05:31.706Z,95.66
2023-02-02T19:08:03.420Z,94.88
2023-02-02T19:10:31.923Z,95.09
2023-02-02T19:13:13.370Z,95.05
2023-02-02T19:15:42.424Z,96.06
2023-02-02T19:18:17.014Z,95.12
2023-02-02T19:20:46.126Z,95.44
2023-02-02T19:23:19.131Z,95.72
2023-02-02T19:25:51.660Z,95.79
2023-02-02T19:28:29.307Z,95.66
2023-02-02T19:31:00.105Z,95.26
2023-02-02T19:33:38.603Z,96.20
2023-02-02T19:36:12.465Z,95.49
2023-02-02T19:38:42.437Z,95.83
2023-02-02T19:41:20.273Z,95.52
2023-02-02T19:43:49.057Z,95.33
2023-02-02T19:46:22.517Z,96.06
2023-02-02T19:48:55.695Z,95.78
2023-02-02T19:51:42.967Z,95.79
2023-02-02T19:54:29.738Z,95.69
2023-02-02T19:57:01.826Z,95.83
2023-02-02T19:59:36.244Z,96.36
2023-02-02T20:02:53.595Z,95.90
2023-02-02T20:05:24.338Z,96.03
2023-02-02T20:08:02.389Z,96.04
2023-02-02T20:10:42.562Z,96.24
2023-02-02T20:13:22.400Z,96.39
2023-02-02T20:15:54.684Z,95.45
2023-02-02T20:18:35.483Z,96.30
2023-02-02T20:21:08.952Z,96.00
2023-02-02T20:23:42.568Z,95.74
2023-02-02T20:26:24.313Z,96.24
2023-02-02T20:28:54.573Z,96.66
2023-02-02T20:31:26.592Z,96.02
2023-02-02T20:33:57.591Z,95.76
2023-02-02T20:36:36.773Z,96.14
2023-02-02T20:39:28.916Z,96.59
2023-02-02T20:41:58.863Z,95.88
2023-02-02T20:44:29.475Z,95.86
2023-02-02T20:47:00.386Z,96.21
2023-02-02T20:49:31.729Z,95.42
2023-02-02T20:52:03.653Z,95.66
2023-02-02T20:54:32.834Z,96.31
2023-02-02T20:57:03.214Z,96.21
2023-02-02T20:59:31.601Z,96.00
2023-02-02T21:02:00.811Z,96.52
2023-02-02T21:04:29.687Z,95.99
2023-02-02T21:07:00.449Z,95.71
2023-02-02T21:09:28.987Z,96.55
2023-02-02T21:11:57.334Z,95.84
2023-02-02T21:14:27.130Z,96.42
2023-02-02T21:17:12.695Z,96.03
2023-02-02T21:19:42.622Z,96.74
2023-02-02T21:22:11.283Z,96.25
2023-02-02T21:24:39.683Z,96.54
2023-02-02T21:27:08.994Z,96.51
2023-02-02T21:29:38.970Z,95.88
2023-02-02T21:32:07.607Z,96.71
2023-02-02T21:34:37.692Z,96.27
2023-02-02T21:37:13.679Z,95.59
2023-02-02T21:39:48.130Z,96.06
2023-02-02T21:42:18.892Z,96.03
2023-02-02T21:44:54.206Z,96.27
2023-02-02T21:47:34.159Z,95.48
2023-02-02T21:50:15.862Z,95.42
2023-02-02T21:52:44.388Z,95.44
2023-02-02T21:55:32.786Z,96.01
2023-02-02T21:58:02.601Z,96.43
2023-02-02T22:00:34.953Z,95.71
2023-02-02T22:03:03.613Z,95.53
2023-02-02T22:05:37.838Z,96.41
2023-02-02T22:08:22.703Z,95.72
2023-02-02T22:10:51.109Z,95.50
2023-02-02T22:13:21.953Z,96.11
2023-02-02T22:15:54.011Z,95.62
2023-02-02T22:18:24.853Z,96.09
2023-02-02T22:20:56.563Z,95.24
2023-02-02T22:23:28.932Z,94.86
2023-02-02T22:25:59.829Z,95.34
2023-02-02T22:28:31.527Z,94.32
2023-02-02T22:31:01.717Z,94.85
2023-02-02T22:33:30.035Z,94.08
2023-02-02T22:35:58.359Z,93.53
2023-02-02T22:38:27.168Z,93.55
2023-02-02T22:40:55.770Z,93.00
2023-02-02T22:43:24.090Z,93.29
2023-02-02T22:45:52.490Z,93.41
2023-02-02T22:48:22.248Z,92.37
2023-02-02T22:50:50.566Z,92.97
2023-02-02T22:53:18.914Z,92.07
2023-02-02T22:55:47.247Z,92.62
2023-02-02T22:58:15.551Z,92.18
2023-02-02T23:00:43.855Z,92.17
2023-02-02T23:03:12.324Z,91.45
2023-02-02T23:05:42.156Z,91.48
2023-02-02T23:08:10.528Z,91.42
2023-02-02T23:10:39.008Z,91.84
2023-02-02T23:13:08.251Z,91.27
2023-02-02T23:15:36.892Z,90.58
2023-02-02T23:18:06.042Z,90.53
2023-02-02T23:20:34.675Z,90.18
2023-02-02T23:23:05.312Z,90.54
2023-02-02T23:25:33.827Z,89.96
2023-02-02T23:28:02.151Z,90.27
2023-02-02T23:30:30.545Z,89.93
2023-02-02T23:32:59.011Z,90.19
2023-02-02T23:35:27.339Z,89.87
2023-02-02T23:37:55.664Z,90.11
2023-02-02T23:40:25.704Z,89.25
2023-02-02T23:42:54.273Z,89.00
2023-02-02T23:45:22.689Z,89.40
2023-02-02T23:47:50.991Z,89.67
2023-02-02T23:50:19.512Z,89.33
2023-02-02T23:52:47.951Z,89.21
2023-02-02T23:55:16.791Z,89.03
2023-02-02T23:57:46.565Z,88.46
